Metar z pełnej godziny Komunikat METAR ze strony awiacja.imgw.pl Metar G00 EPLB METAR EPLB 172100Z 10003KT 5000 BR NSC 06/05 Q1022 =